createdAt,value
2023-03-15T00:06:33.373Z,4.13
2023-03-15T00:16:33.483Z,3.95
2023-03-15T00:26:33.387Z,4.01
2023-03-15T00:36:33.430Z,4.02
2023-03-15T00:46:33.378Z,4.12
2023-03-15T00:56:33.440Z,4.11
2023-03-15T01:06:33.352Z,4.05
2023-03-15T01:16:33.472Z,4.14
2023-03-15T01:26:33.343Z,4.13
2023-03-15T01:36:33.423Z,4.12
2023-03-15T01:46:33.401Z,4.24
2023-03-15T01:56:33.433Z,4.28
2023-03-15T02:06:33.387Z,4.36
2023-03-15T02:16:33.494Z,4.42
2023-03-15T02:26:33.403Z,4.43
2023-03-15T02:36:33.419Z,4.43
2023-03-15T02:46:33.359Z,4.41
2023-03-15T02:56:33.402Z,4.44
2023-03-15T03:06:33.414Z,4.53
2023-03-15T03:16:33.454Z,4.55
2023-03-15T03:26:33.381Z,4.68
2023-03-15T03:36:33.424Z,4.73
2023-03-15T03:46:33.432Z,4.75
2023-03-15T03:56:33.390Z,4.76
2023-03-15T04:06:33.358Z,4.69
2023-03-15T04:16:33.393Z,4.67
2023-03-15T04:26:33.407Z,4.67
2023-03-15T04:36:33.385Z,4.64
2023-03-15T04:46:33.427Z,4.67
2023-03-15T04:56:33.376Z,4.66
2023-03-15T05:06:33.364Z,4.65
2023-03-15T05:16:33.509Z,4.69
2023-03-15T05:26:33.369Z,4.7
2023-03-15T05:36:33.394Z,4.82
2023-03-15T05:46:33.353Z,4.8
2023-03-15T05:56:33.419Z,4.87
2023-03-15T06:06:33.924Z,4.95
2023-03-15T06:16:33.359Z,5.1
2023-03-15T06:26:33.428Z,5.1
2023-03-15T06:36:33.355Z,5.17
2023-03-15T06:46:33.399Z,5.21
2023-03-15T06:56:33.441Z,5.32
2023-03-15T07:06:33.360Z,5.42
2023-03-15T07:16:33.379Z,5.38
2023-03-15T07:26:33.402Z,5.42
2023-03-15T07:36:33.371Z,5.66
2023-03-15T07:46:33.361Z,6.04
2023-03-15T07:56:33.369Z,6.33
2023-03-15T08:06:33.347Z,6.67
2023-03-15T08:16:33.372Z,6.75
2023-03-15T08:26:33.381Z,7.08
2023-03-15T08:36:33.438Z,7.4
2023-03-15T08:46:33.430Z,7.57
2023-03-15T08:56:33.372Z,7.43
2023-03-15T09:06:33.350Z,7.84
2023-03-15T09:16:33.339Z,8.25
2023-03-15T09:26:33.323Z,8.63
2023-03-15T09:36:33.336Z,8.45
2023-03-15T09:46:33.355Z,8.59
2023-03-15T09:56:33.334Z,8.5
2023-03-15T10:06:33.318Z,8.45
2023-03-15T10:16:33.414Z,8.25
2023-03-15T10:26:33.319Z,9.04
2023-03-15T10:36:33.387Z,9.76
2023-03-15T10:46:33.443Z,10.94
2023-03-15T10:56:33.298Z,11.55
2023-03-15T11:06:33.352Z,11.26
2023-03-15T11:16:33.306Z,10.49
2023-03-15T11:26:33.534Z,10.15
2023-03-15T11:36:33.280Z,9.89
2023-03-15T11:46:33.314Z,9.93
2023-03-15T11:56:33.349Z,9.17
2023-03-15T12:06:33.264Z,10.16
2023-03-15T12:16:33.319Z,10.59
2023-03-15T12:26:33.222Z,10.36
2023-03-15T12:36:33.258Z,9.9
2023-03-15T12:46:33.496Z,10.09
2023-03-15T12:56:38.798Z,9.78
2023-03-15T13:06:33.429Z,9.46
2023-03-15T13:16:33.227Z,9.39
2023-03-15T13:26:39.314Z,9.45
2023-03-15T13:36:34.473Z,9.47
2023-03-15T13:46:38.700Z,9.3
2023-03-15T13:56:43.632Z,9.35
2023-03-15T14:06:33.436Z,9.48
2023-03-15T14:16:33.484Z,9.5
2023-03-15T14:26:33.189Z,9.5
2023-03-15T14:36:33.191Z,9.4
2023-03-15T14:46:33.199Z,9.39
2023-03-15T14:56:33.202Z,9.28
2023-03-15T15:16:33.252Z,9.13
2023-03-15T15:26:33.199Z,8.99
2023-03-15T15:36:33.175Z,8.87
2023-03-15T15:46:33.144Z,8.61
2023-03-15T15:56:33.172Z,8.41
2023-03-15T16:06:33.151Z,8.27
2023-03-15T16:16:33.178Z,8.15
2023-03-15T16:26:33.116Z,7.84
2023-03-15T16:36:33.205Z,7.43
2023-03-15T16:46:33.172Z,7.15
2023-03-15T16:56:33.146Z,6.86
2023-03-15T17:06:33.130Z,6.6
2023-03-15T17:16:33.190Z,6.38
2023-03-15T17:26:33.123Z,6.27
2023-03-15T17:36:33.144Z,5.97
2023-03-15T17:46:33.416Z,5.69
2023-03-15T17:56:33.141Z,5.14
2023-03-15T18:06:33.116Z,4.71
2023-03-15T18:16:33.258Z,4.68
2023-03-15T18:26:33.146Z,4.8
2023-03-15T18:36:33.243Z,4.48
2023-03-15T18:46:33.219Z,4.05
2023-03-15T18:56:33.126Z,3.23
2023-03-15T19:06:33.094Z,2.6
2023-03-15T19:16:33.199Z,2.11
2023-03-15T19:26:33.135Z,1.77
2023-03-15T19:36:33.166Z,1.46
2023-03-15T19:46:33.242Z,1.17
2023-03-15T19:56:33.166Z,0.85
2023-03-15T20:06:33.189Z,0.66
2023-03-15T20:16:33.312Z,0.78
2023-03-15T20:26:33.145Z,0.4
2023-03-15T20:36:33.633Z,0.01
2023-03-15T20:46:33.238Z,-0.27
2023-03-15T20:56:33.249Z,-0.13
2023-03-15T21:06:33.218Z,-0.26
2023-03-15T21:16:33.268Z,-0.41
2023-03-15T21:26:33.162Z,-0.38
2023-03-15T21:36:33.257Z,-0.58
2023-03-15T21:46:33.210Z,-0.69
2023-03-15T21:56:33.191Z,-0.81
2023-03-15T22:06:33.208Z,-1
2023-03-15T22:16:33.332Z,-1.17
2023-03-15T22:26:33.256Z,-1.25
2023-03-15T22:36:33.246Z,-1.5
2023-03-15T22:46:35.035Z,-1.64
2023-03-15T22:56:33.249Z,-1.83
2023-03-15T23:06:33.248Z,-2.14
2023-03-15T23:16:33.304Z,-2.03
2023-03-15T23:26:33.264Z,-1.88
2023-03-15T23:36:33.294Z,-1.68
2023-03-15T23:46:33.334Z,-1.78
2023-03-15T23:56:33.307Z,-1.76
